Time;durP1;ratioP1;P1;durP2;ratioP2;P2;SDS_P1;SDS_P2;PMS_P1;PMS_P2;Temp;Humidity;BMP_temperature;BMP_pressure;BME280_temperature;BME280_humidity;BME280_pressure;Samples;Min_cycle;Max_cycle;Signal;HPM_P1;HPM_P2
2023/05/21 00:01:39;;;;;;;20.45;12.30;;;13.90;99.90;;;;;;5012665;28;20032;-85
2023/05/21 00:04:06;;;;;;;16.00;12.27;;;13.80;99.90;;;;;;5010050;28;20040;-85
2023/05/21 00:06:34;;;;;;;17.83;12.65;;;13.80;99.90;;;;;;5010784;28;20036;-85
2023/05/21 00:09:04;;;;;;;14.82;11.52;;;13.80;99.90;;;;;;5011727;28;20046;-85
2023/05/21 00:11:30;;;;;;;15.60;12.30;;;13.80;99.90;;;;;;5019315;28;20061;-85
2023/05/21 00:13:55;;;;;;;17.52;13.05;;;13.80;99.90;;;;;;5016044;28;20143;-85
2023/05/21 00:16:21;;;;;;;14.85;12.43;;;13.70;99.90;;;;;;5016165;28;20049;-85
2023/05/21 00:18:48;;;;;;;16.63;12.00;;;13.70;99.90;;;;;;5015748;28;20021;-86
2023/05/21 00:21:21;;;;;;;16.38;12.27;;;13.70;99.90;;;;;;5017350;28;20511;-85
2023/05/21 00:23:47;;;;;;;15.82;12.52;;;13.60;99.90;;;;;;5000099;28;20117;-85
2023/05/21 00:26:12;;;;;;;16.85;12.88;;;13.60;99.90;;;;;;5017063;28;20105;-85
2023/05/21 00:28:38;;;;;;;14.50;12.23;;;13.50;99.90;;;;;;5017681;28;20126;-85
2023/05/21 00:31:03;;;;;;;14.45;11.60;;;13.50;99.90;;;;;;5017082;28;20041;-85
2023/05/21 00:33:29;;;;;;;16.50;11.98;;;13.40;99.90;;;;;;4999822;28;21121;-85
2023/05/21 00:35:56;;;;;;;17.70;12.40;;;13.40;99.90;;;;;;5016978;28;20034;-85
2023/05/21 00:38:22;;;;;;;16.88;12.18;;;13.30;99.90;;;;;;5018351;28;20030;-85
2023/05/21 00:40:49;;;;;;;16.20;12.68;;;13.30;99.90;;;;;;5018247;28;20037;-85
2023/05/21 00:43:14;;;;;;;16.65;12.60;;;13.30;99.90;;;;;;5015849;28;20045;-86
2023/05/21 00:45:43;;;;;;;16.60;12.63;;;13.20;99.90;;;;;;5016742;28;20038;-85
2023/05/21 00:48:09;;;;;;;17.55;13.23;;;13.20;99.90;;;;;;5015050;28;20030;-86
2023/05/21 00:50:38;;;;;;;17.80;12.75;;;13.10;99.90;;;;;;5015614;28;20100;-85
2023/05/21 00:53:08;;;;;;;16.38;12.13;;;13.10;99.90;;;;;;5017105;28;20140;-85
2023/05/21 00:55:35;;;;;;;16.95;12.77;;;13.10;99.90;;;;;;5017167;28;20137;-85
2023/05/21 00:58:01;;;;;;;16.63;12.07;;;13.00;99.90;;;;;;5016904;28;20161;-85
2023/05/21 01:00:27;;;;;;;16.60;12.27;;;13.00;99.90;;;;;;5015968;28;20477;-85
2023/05/21 01:02:52;;;;;;;16.55;12.70;;;13.00;99.90;;;;;;4999619;28;20168;-85
2023/05/21 01:05:18;;;;;;;16.38;11.73;;;12.90;99.90;;;;;;5017667;28;20030;-85
2023/05/21 01:07:44;;;;;;;14.00;11.63;;;12.90;99.90;;;;;;5018048;28;20128;-85
2023/05/21 01:10:10;;;;;;;13.73;11.82;;;12.90;99.90;;;;;;5015615;28;20041;-85
2023/05/21 01:12:38;;;;;;;14.45;11.90;;;12.90;99.90;;;;;;5014949;28;21563;-85
2023/05/21 01:15:04;;;;;;;16.05;12.50;;;12.80;99.90;;;;;;5016839;28;20026;-85
2023/05/21 01:17:32;;;;;;;18.08;13.13;;;12.80;99.90;;;;;;5017041;28;20038;-85
2023/05/21 01:19:58;;;;;;;17.35;12.95;;;12.80;99.90;;;;;;5016857;28;20026;-85
2023/05/21 01:22:27;;;;;;;16.40;12.63;;;12.80;99.90;;;;;;5015238;28;20445;-85
2023/05/21 01:24:54;;;;;;;14.18;11.50;;;12.80;99.90;;;;;;5016375;28;20041;-85
2023/05/21 01:27:20;;;;;;;14.45;12.23;;;12.70;99.90;;;;;;5015886;28;20060;-85
2023/05/21 01:29:45;;;;;;;14.65;11.70;;;12.70;99.90;;;;;;5016916;28;20034;-85
2023/05/21 01:32:23;;;;;;;13.80;11.68;;;12.70;99.90;;;;;;5016870;28;20037;-85
2023/05/21 01:34:48;;;;;;;16.63;11.43;;;12.70;99.90;;;;;;5019994;28;20036;-85
2023/05/21 01:37:41;;;;;;;14.70;12.15;;;12.70;99.90;;;;;;5020295;28;20025;-84
2023/05/21 01:40:24;;;;;;;19.35;12.02;;;12.70;99.90;;;;;;5014802;28;20033;-84
2023/05/21 01:42:51;;;;;;;13.38;11.07;;;12.60;99.90;;;;;;5021985;28;20493;-85
2023/05/21 01:45:17;;;;;;;12.75;11.05;;;12.60;99.90;;;;;;5022342;28;20033;-85
2023/05/21 01:47:47;;;;;;;14.68;12.07;;;12.60;99.90;;;;;;5025232;28;20045;-85
2023/05/21 01:50:13;;;;;;;15.75;11.90;;;12.60;99.90;;;;;;5023400;28;20026;-85
2023/05/21 01:52:46;;;;;;;15.65;11.43;;;12.60;99.90;;;;;;5020137;28;20037;-85
2023/05/21 01:55:12;;;;;;;16.20;11.45;;;12.60;99.90;;;;;;5020260;28;20409;-84
2023/05/21 01:57:38;;;;;;;15.32;11.00;;;12.50;99.90;;;;;;5019977;28;20041;-84
2023/05/21 02:00:04;;;;;;;16.60;10.90;;;12.50;99.90;;;;;;5019922;28;20101;-85
2023/05/21 02:02:30;;;;;;;13.90;11.27;;;12.50;99.90;;;;;;5019927;28;20033;-84
2023/05/21 02:04:55;;;;;;;14.95;10.90;;;12.50;99.90;;;;;;5021449;28;20057;-85
2023/05/21 02:07:21;;;;;;;15.85;11.32;;;12.40;99.90;;;;;;5020527;28;20654;-85
2023/05/21 02:09:47;;;;;;;13.95;10.65;;;12.40;99.90;;;;;;5018885;28;20022;-85
2023/05/21 02:12:12;;;;;;;15.25;11.95;;;12.40;99.90;;;;;;5019006;28;20038;-85
2023/05/21 02:14:38;;;;;;;14.60;10.80;;;12.40;99.90;;;;;;5022358;28;20061;-85
2023/05/21 02:17:04;;;;;;;14.57;12.02;;;12.30;99.90;;;;;;5019540;28;20053;-85
2023/05/21 02:19:29;;;;;;;12.75;10.88;;;12.30;99.90;;;;;;5021284;28;20976;-85
2023/05/21 02:21:55;;;;;;;13.73;10.70;;;12.30;99.90;;;;;;5020339;28;20030;-85
2023/05/21 02:24:21;;;;;;;13.77;11.18;;;12.20;99.90;;;;;;5020437;28;20042;-85
2023/05/21 02:26:48;;;;;;;15.93;11.60;;;12.20;99.90;;;;;;5019049;28;20041;-85
2023/05/21 02:29:14;;;;;;;16.20;11.75;;;12.20;99.90;;;;;;5020502;28;20036;-85
2023/05/21 02:31:40;;;;;;;14.38;11.43;;;12.10;99.90;;;;;;5020868;28;20156;-85
2023/05/21 02:34:06;;;;;;;15.43;10.57;;;12.10;99.90;;;;;;5019284;28;20022;-85
2023/05/21 02:36:32;;;;;;;13.20;11.35;;;12.10;99.90;;;;;;5021481;28;20076;-85
2023/05/21 02:38:57;;;;;;;13.70;11.20;;;12.10;99.90;;;;;;5019173;28;20061;-85
2023/05/21 02:41:23;;;;;;;12.35;11.00;;;12.10;99.90;;;;;;5002047;28;20045;-85
2023/05/21 02:43:49;;;;;;;14.15;10.95;;;12.00;99.90;;;;;;5018259;28;20041;-85
2023/05/21 02:46:14;;;;;;;14.73;11.65;;;12.00;99.90;;;;;;5018547;28;20037;-85
2023/05/21 02:48:40;;;;;;;13.32;11.10;;;12.00;99.90;;;;;;5019525;28;20588;-86
2023/05/21 02:51:05;;;;;;;16.27;11.10;;;12.00;99.90;;;;;;5020295;28;20088;-85
2023/05/21 02:53:31;;;;;;;14.23;10.90;;;12.00;99.90;;;;;;5018992;28;20213;-85
2023/05/21 02:55:56;;;;;;;16.55;11.55;;;12.00;99.90;;;;;;5019987;28;20068;-85
2023/05/21 02:58:24;;;;;;;14.45;11.10;;;12.00;99.90;;;;;;5020412;28;20026;-84
2023/05/21 03:00:50;;;;;;;13.30;10.85;;;12.00;99.90;;;;;;5020179;28;20026;-85
2023/05/21 03:03:15;;;;;;;14.80;10.82;;;11.90;99.90;;;;;;5019989;28;20025;-85
2023/05/21 03:05:41;;;;;;;13.90;11.05;;;11.90;99.90;;;;;;5021719;28;20044;-84
2023/05/21 03:08:06;;;;;;;13.27;10.60;;;11.90;99.90;;;;;;5020585;28;20031;-84
2023/05/21 03:10:32;;;;;;;15.02;11.88;;;11.90;99.90;;;;;;5001977;28;20048;-85
2023/05/21 03:12:57;;;;;;;13.18;10.45;;;11.90;99.90;;;;;;5016509;28;20065;-85
2023/05/21 03:15:23;;;;;;;10.98;9.55;;;11.80;99.90;;;;;;5020155;28;20029;-85
2023/05/21 03:17:52;;;;;;;13.35;10.65;;;11.80;99.90;;;;;;5019096;28;20084;-85
2023/05/21 03:20:18;;;;;;;15.20;9.73;;;11.90;99.90;;;;;;5018407;28;20029;-85
2023/05/21 03:22:45;;;;;;;14.55;10.00;;;11.90;99.90;;;;;;5018051;28;20045;-85
2023/05/21 03:25:11;;;;;;;13.57;10.35;;;11.80;99.90;;;;;;5016757;28;20029;-84
2023/05/21 03:27:37;;;;;;;12.43;10.30;;;11.80;99.90;;;;;;5017368;28;20042;-85
2023/05/21 03:30:04;;;;;;;14.32;10.38;;;11.80;99.90;;;;;;5016659;28;20128;-85
2023/05/21 03:32:29;;;;;;;14.38;10.30;;;11.80;99.90;;;;;;5014469;28;20049;-85
2023/05/21 03:34:55;;;;;;;12.18;9.35;;;11.80;99.90;;;;;;5014427;28;20026;-85
2023/05/21 03:37:20;;;;;;;12.10;10.38;;;11.80;99.90;;;;;;5016741;28;20073;-85
2023/05/21 03:39:46;;;;;;;12.35;9.82;;;11.70;99.90;;;;;;5016320;28;20060;-85
2023/05/21 03:42:12;;;;;;;13.48;10.13;;;11.70;99.90;;;;;;5014804;28;20026;-85
2023/05/21 03:44:38;;;;;;;16.35;10.35;;;11.70;99.90;;;;;;5016100;28;20025;-85
2023/05/21 03:47:04;;;;;;;12.98;9.13;;;11.70;99.90;;;;;;5013171;28;20057;-85
2023/05/21 03:49:30;;;;;;;11.75;9.15;;;11.70;99.90;;;;;;5011802;28;20124;-84
2023/05/21 03:51:55;;;;;;;11.50;8.73;;;11.70;99.90;;;;;;5009309;28;20537;-84
2023/05/21 03:54:21;;;;;;;14.07;9.32;;;11.80;99.90;;;;;;5010336;28;20034;-84
2023/05/21 03:56:46;;;;;;;11.52;9.07;;;11.80;99.90;;;;;;5010984;28;20538;-85
2023/05/21 03:59:12;;;;;;;10.48;7.97;;;11.80;99.90;;;;;;5016778;28;20438;-85
2023/05/21 04:01:38;;;;;;;12.50;8.68;;;11.80;99.90;;;;;;5018604;28;20768;-85
2023/05/21 04:04:03;;;;;;;11.93;9.45;;;11.90;99.90;;;;;;5018921;28;20102;-85
2023/05/21 04:06:29;;;;;;;10.82;8.80;;;11.90;99.90;;;;;;5019833;28;20037;-85
2023/05/21 04:08:55;;;;;;;12.73;8.85;;;11.90;99.90;;;;;;5019388;28;20044;-85
2023/05/21 04:11:21;;;;;;;10.88;8.45;;;11.90;99.90;;;;;;5019247;28;20809;-85
2023/05/21 04:13:46;;;;;;;11.85;8.45;;;11.90;99.90;;;;;;5018473;28;20076;-85
2023/05/21 04:16:13;;;;;;;12.50;8.80;;;12.00;99.90;;;;;;5020046;28;21746;-85
2023/05/21 04:18:40;;;;;;;13.52;8.15;;;12.00;99.90;;;;;;5020262;28;20117;-85
2023/05/21 04:21:06;;;;;;;14.30;8.05;;;12.00;99.90;;;;;;5018485;28;20205;-85
2023/05/21 04:23:32;;;;;;;10.75;7.68;;;12.00;99.90;;;;;;5018691;28;20129;-85
2023/05/21 04:25:58;;;;;;;10.40;8.15;;;12.00;99.90;;;;;;5019740;28;20486;-85
2023/05/21 04:28:23;;;;;;;10.25;8.18;;;12.10;99.90;;;;;;5019178;28;20049;-85
2023/05/21 04:30:49;;;;;;;12.40;8.32;;;12.10;99.90;;;;;;5017726;28;20037;-85
2023/05/21 04:33:19;;;;;;;10.88;7.50;;;12.20;99.90;;;;;;5019700;28;20033;-85
2023/05/21 04:35:50;;;;;;;13.73;9.02;;;12.20;99.90;;;;;;5018870;28;20064;-85
2023/05/21 04:38:18;;;;;;;10.98;8.57;;;12.30;99.90;;;;;;5019245;28;20030;-84
2023/05/21 04:40:49;;;;;;;9.77;8.07;;;12.30;99.90;;;;;;5019833;28;20029;-85
2023/05/21 04:43:15;;;;;;;9.00;7.55;;;12.40;99.90;;;;;;5015877;28;20881;-86
2023/05/21 04:45:42;;;;;;;10.40;8.40;;;12.40;99.90;;;;;;5018308;28;20026;-86
2023/05/21 04:48:08;;;;;;;14.55;8.95;;;12.50;99.90;;;;;;5017556;28;20928;-85
2023/05/21 04:50:33;;;;;;;10.32;8.20;;;12.50;99.90;;;;;;5015896;28;20038;-85
2023/05/21 04:52:59;;;;;;;9.10;8.07;;;12.60;99.90;;;;;;5013807;28;20037;-85
2023/05/21 04:55:26;;;;;;;11.43;8.77;;;12.70;99.90;;;;;;5016363;28;20089;-86
2023/05/21 04:57:52;;;;;;;13.23;8.93;;;12.70;99.90;;;;;;5016949;28;20041;-85
2023/05/21 05:00:18;;;;;;;11.07;8.38;;;12.80;99.90;;;;;;5015884;28;20036;-85
2023/05/21 05:02:43;;;;;;;10.43;8.20;;;12.90;99.90;;;;;;5013038;28;20046;-85
2023/05/21 05:05:09;;;;;;;10.00;7.53;;;12.90;99.90;;;;;;5014313;28;21358;-85
2023/05/21 05:07:35;;;;;;;10.82;8.05;;;13.00;99.90;;;;;;5010350;28;20593;-85
2023/05/21 05:10:01;;;;;;;12.27;8.25;;;13.10;99.90;;;;;;5014309;28;20032;-86
2023/05/21 05:12:27;;;;;;;12.13;8.57;;;13.20;99.90;;;;;;5016252;28;20045;-85
2023/05/21 05:14:52;;;;;;;10.00;7.53;;;13.30;99.90;;;;;;5015252;28;20030;-85
2023/05/21 05:17:18;;;;;;;10.55;7.47;;;13.40;99.90;;;;;;5015747;28;20620;-85
2023/05/21 05:19:44;;;;;;;9.35;7.40;;;13.40;99.90;;;;;;5016629;28;20041;-85
2023/05/21 05:22:10;;;;;;;10.02;7.55;;;13.50;99.90;;;;;;5014473;28;20034;-85
2023/05/21 05:24:35;;;;;;;11.98;7.80;;;13.60;99.90;;;;;;5016215;28;20605;-85
2023/05/21 05:27:01;;;;;;;9.43;7.18;;;13.70;99.90;;;;;;5013916;28;21314;-85
2023/05/21 05:29:26;;;;;;;10.25;6.88;;;13.80;99.90;;;;;;5016508;28;21412;-86
2023/05/21 05:31:52;;;;;;;9.18;7.45;;;13.90;99.90;;;;;;5015750;28;20110;-85
2023/05/21 05:34:18;;;;;;;12.35;7.45;;;14.00;99.90;;;;;;5015558;28;20053;-85
2023/05/21 05:36:44;;;;;;;10.20;7.90;;;14.10;99.90;;;;;;5016792;28;20033;-86
2023/05/21 05:39:10;;;;;;;9.20;7.05;;;14.20;99.90;;;;;;5017322;28;20046;-85
2023/05/21 05:41:36;;;;;;;10.75;7.53;;;14.30;99.90;;;;;;5016554;28;20053;-85
2023/05/21 05:44:01;;;;;;;11.32;6.85;;;14.40;99.90;;;;;;5013016;28;20081;-86
2023/05/21 05:46:28;;;;;;;10.60;7.05;;;14.50;99.90;;;;;;5014469;28;20482;-86
2023/05/21 05:48:53;;;;;;;9.55;7.93;;;14.60;99.90;;;;;;5015989;28;20030;-85
2023/05/21 05:51:19;;;;;;;10.77;6.97;;;14.70;99.90;;;;;;5011911;28;20056;-86
2023/05/21 05:53:44;;;;;;;9.98;7.53;;;14.80;99.90;;;;;;5013564;28;20034;-85
2023/05/21 05:56:10;;;;;;;9.63;7.45;;;14.80;99.90;;;;;;5013743;28;20030;-86
2023/05/21 05:58:35;;;;;;;9.65;6.93;;;14.90;99.90;;;;;;5013712;28;20757;-86
2023/05/21 06:01:01;;;;;;;10.80;7.90;;;15.00;99.90;;;;;;5012957;28;20098;-85
2023/05/21 06:03:27;;;;;;;11.85;7.55;;;15.10;99.90;;;;;;5012852;28;20053;-85
2023/05/21 06:05:53;;;;;;;9.90;7.40;;;15.20;99.90;;;;;;5010086;28;20044;-86
2023/05/21 06:08:18;;;;;;;10.55;6.97;;;15.20;99.90;;;;;;5009899;28;20034;-86
2023/05/21 06:10:44;;;;;;;9.38;6.43;;;15.30;99.90;;;;;;5010793;28;20034;-85
2023/05/21 06:13:09;;;;;;;7.43;6.63;;;15.30;99.90;;;;;;4990618;28;20041;-85
2023/05/21 06:15:35;;;;;;;10.43;6.90;;;15.40;99.90;;;;;;4984765;28;20040;-86
2023/05/21 06:18:01;;;;;;;8.80;7.00;;;15.40;99.90;;;;;;5009862;28;20121;-85
2023/05/21 06:20:26;;;;;;;10.75;7.53;;;15.50;99.90;;;;;;5014312;28;20026;-85
2023/05/21 06:22:52;;;;;;;12.70;7.13;;;15.50;99.90;;;;;;5015899;28;20266;-85
2023/05/21 06:25:17;;;;;;;9.95;6.88;;;15.60;99.90;;;;;;5015769;28;20030;-85
2023/05/21 06:27:43;;;;;;;9.65;7.28;;;15.70;99.90;;;;;;5013287;28;20053;-85
2023/05/21 06:30:08;;;;;;;9.00;6.88;;;15.80;99.90;;;;;;5015269;28;20037;-85
2023/05/21 06:32:34;;;;;;;8.73;6.78;;;15.90;99.90;;;;;;5012098;28;20521;-85
2023/05/21 06:35:00;;;;;;;11.45;6.93;;;16.00;99.90;;;;;;5015762;28;20021;-86
2023/05/21 06:37:25;;;;;;;11.40;6.25;;;16.10;99.90;;;;;;5016877;28;20061;-84
2023/05/21 06:39:51;;;;;;;9.07;6.90;;;16.10;99.90;;;;;;5014267;28;22357;-78
2023/05/21 06:42:16;;;;;;;10.38;6.97;;;16.20;99.90;;;;;;5004991;28;20751;-79
2023/05/21 06:44:43;;;;;;;7.85;6.57;;;16.20;99.90;;;;;;5006054;28;20115;-79
2023/05/21 06:47:09;;;;;;;10.13;6.53;;;16.40;99.90;;;;;;5006675;28;20563;-82
2023/05/21 06:49:34;;;;;;;9.35;6.28;;;16.40;99.90;;;;;;5007425;28;20034;-75
2023/05/21 06:52:00;;;;;;;8.98;6.88;;;16.50;99.90;;;;;;5004739;28;20042;-77
2023/05/21 06:54:25;;;;;;;8.65;6.55;;;16.50;99.90;;;;;;5005949;28;20026;-78
2023/05/21 06:56:51;;;;;;;8.13;6.72;;;16.70;99.90;;;;;;5003061;28;20034;-78
2023/05/21 06:59:16;;;;;;;13.45;8.23;;;16.80;99.90;;;;;;5003876;28;20029;-79
2023/05/21 07:01:42;;;;;;;9.35;7.38;;;16.90;99.90;;;;;;5004193;28;20036;-78
2023/05/21 07:04:08;;;;;;;9.73;6.55;;;17.00;99.90;;;;;;5003978;28;20087;-80
2023/05/21 07:06:34;;;;;;;10.70;6.05;;;17.10;99.90;;;;;;5002818;28;20156;-78
2023/05/21 07:09:01;;;;;;;9.27;6.38;;;17.20;99.90;;;;;;5004852;28;20037;-78
2023/05/21 07:11:27;;;;;;;9.13;6.03;;;17.40;99.90;;;;;;4992469;28;20164;-77
2023/05/21 07:13:54;;;;;;;8.35;6.20;;;17.50;99.90;;;;;;5006072;28;20446;-79
2023/05/21 07:16:20;;;;;;;10.00;6.90;;;17.60;99.90;;;;;;5006949;28;20029;-78
2023/05/21 07:18:45;;;;;;;10.00;6.03;;;17.80;99.90;;;;;;5006907;28;20486;-77
2023/05/21 07:21:11;;;;;;;10.18;6.32;;;17.90;99.90;;;;;;5000191;28;20037;-78
2023/05/21 07:23:36;;;;;;;12.02;5.85;;;18.10;99.90;;;;;;5005576;28;20083;-77
2023/05/21 07:26:02;;;;;;;7.55;6.32;;;18.40;99.90;;;;;;5005801;28;20630;-78
2023/05/21 07:28:28;;;;;;;8.45;6.60;;;18.50;99.90;;;;;;5006946;28;20387;-78
2023/05/21 07:30:53;;;;;;;9.15;6.50;;;18.60;99.90;;;;;;5002494;28;20703;-78
2023/05/21 07:33:19;;;;;;;9.32;5.85;;;18.70;99.90;;;;;;4998260;28;20558;-81
2023/05/21 07:35:46;;;;;;;9.25;6.55;;;18.80;99.90;;;;;;4998639;28;20045;-82
2023/05/21 07:38:11;;;;;;;9.18;6.32;;;19.10;99.90;;;;;;4988491;28;20051;-78
2023/05/21 07:40:37;;;;;;;7.63;5.65;;;19.20;99.90;;;;;;4989003;28;20046;-78
2023/05/21 07:43:02;;;;;;;7.13;5.78;;;19.30;99.90;;;;;;4990078;28;20030;-78
2023/05/21 07:45:28;;;;;;;8.90;6.07;;;19.30;99.90;;;;;;4994017;28;20072;-81
2023/05/21 07:47:53;;;;;;;10.05;6.90;;;19.40;99.90;;;;;;4993445;28;20033;-80
2023/05/21 07:50:19;;;;;;;8.10;6.10;;;19.40;99.90;;;;;;4988041;28;20083;-79
2023/05/21 07:52:45;;;;;;;7.82;6.00;;;19.60;99.90;;;;;;4988963;28;21199;-79
2023/05/21 07:55:10;;;;;;;7.63;5.78;;;19.70;99.90;;;;;;4987684;28;20299;-79
2023/05/21 07:57:36;;;;;;;6.88;5.65;;;19.80;99.90;;;;;;4990663;28;20129;-79
2023/05/21 08:00:05;;;;;;;9.70;5.78;;;20.00;99.90;;;;;;4993049;28;20706;-78
2023/05/21 08:02:31;;;;;;;7.47;5.55;;;20.10;99.90;;;;;;5002344;28;20042;-78
2023/05/21 08:04:56;;;;;;;8.27;5.13;;;20.30;99.90;;;;;;4990409;28;20128;-80
2023/05/21 08:07:22;;;;;;;7.72;5.43;;;20.40;99.90;;;;;;5004109;28;20038;-78
2023/05/21 08:09:47;;;;;;;7.88;5.35;;;20.60;99.90;;;;;;5000694;28;20029;-78
2023/05/21 08:12:14;;;;;;;6.22;4.82;;;20.80;99.90;;;;;;4996686;28;20045;-78
2023/05/21 08:14:40;;;;;;;8.07;5.63;;;20.90;99.90;;;;;;4990126;28;20053;-76
2023/05/21 08:17:08;;;;;;;7.28;4.93;;;21.00;99.90;;;;;;4987283;28;20034;-76
2023/05/21 08:19:34;;;;;;;7.28;5.22;;;21.00;99.90;;;;;;4985549;28;20029;-77
2023/05/21 08:21:59;;;;;;;7.30;5.05;;;21.00;99.90;;;;;;4987482;28;20041;-75
2023/05/21 08:24:25;;;;;;;10.40;5.13;;;21.00;99.90;;;;;;4990041;28;20033;-75
2023/05/21 08:26:50;;;;;;;6.75;5.07;;;21.10;99.90;;;;;;4998160;28;20037;-75
2023/05/21 08:29:16;;;;;;;12.77;6.03;;;21.10;99.90;;;;;;4994274;28;20490;-75
2023/05/21 08:31:42;;;;;;;7.45;5.00;;;21.20;99.90;;;;;;4973744;28;20045;-77
2023/05/21 08:34:07;;;;;;;5.95;4.93;;;21.10;99.90;;;;;;4995915;28;20032;-76
2023/05/21 08:36:33;;;;;;;6.05;5.10;;;21.00;99.90;;;;;;5002536;28;20872;-78
2023/05/21 08:38:58;;;;;;;6.95;5.43;;;21.00;99.90;;;;;;5002946;28;20525;-76
2023/05/21 08:41:25;;;;;;;7.35;5.50;;;21.00;99.90;;;;;;5002273;28;20026;-72
2023/05/21 08:43:57;;;;;;;7.30;5.13;;;20.90;99.90;;;;;;5001533;28;20087;-76
2023/05/21 08:46:24;;;;;;;6.32;4.72;;;20.80;99.90;;;;;;5003939;28;20129;-76
2023/05/21 08:48:54;;;;;;;9.05;6.43;;;20.80;99.90;;;;;;5003669;28;20029;-76
2023/05/21 08:51:21;;;;;;;6.72;5.30;;;20.70;99.90;;;;;;5004074;28;20037;-76
2023/05/21 08:53:48;;;;;;;7.18;5.32;;;20.60;99.90;;;;;;5003682;28;20401;-76
2023/05/21 08:56:19;;;;;;;8.75;5.53;;;20.60;99.90;;;;;;5004775;28;20022;-75
2023/05/21 08:58:46;;;;;;;7.85;5.05;;;20.60;99.90;;;;;;5003790;28;20060;-76
2023/05/21 09:01:11;;;;;;;8.73;5.72;;;20.50;99.90;;;;;;5003401;28;20025;-75
2023/05/21 09:03:39;;;;;;;9.13;5.45;;;20.50;99.90;;;;;;5003286;28;20025;-76
2023/05/21 09:06:09;;;;;;;8.90;5.32;;;20.70;99.90;;;;;;5004817;28;20029;-75
2023/05/21 09:08:37;;;;;;;8.30;5.68;;;20.70;99.90;;;;;;5009367;28;20041;-74
2023/05/21 09:11:03;;;;;;;6.88;5.55;;;20.80;99.90;;;;;;5003316;28;20113;-80
2023/05/21 09:13:31;;;;;;;11.18;6.45;;;20.80;99.90;;;;;;5005740;28;20087;-81
2023/05/21 09:15:58;;;;;;;10.48;6.10;;;21.00;99.90;;;;;;5006379;28;20049;-77
2023/05/21 09:18:29;;;;;;;7.32;5.68;;;21.00;99.90;;;;;;5005532;28;20030;-86
2023/05/21 09:20:55;;;;;;;7.65;6.35;;;21.10;99.90;;;;;;5005323;28;20042;-78
2023/05/21 09:23:21;;;;;;;8.98;6.18;;;21.20;99.90;;;;;;5005565;28;20037;-78
2023/05/21 09:25:47;;;;;;;9.32;6.07;;;21.30;99.90;;;;;;5010659;28;20034;-76
2023/05/21 09:28:15;;;;;;;8.43;6.07;;;21.50;99.90;;;;;;5009164;28;20041;-77
2023/05/21 09:30:45;;;;;;;7.10;5.53;;;21.60;99.90;;;;;;5007752;28;20033;-76
2023/05/21 09:33:10;;;;;;;8.93;5.80;;;21.70;99.90;;;;;;5004645;28;20964;-74
2023/05/21 09:42:28;;;;;;;9.18;6.03;;;22.10;99.90;;;;;;5060588;28;20432;-77
2023/05/21 09:44:54;;;;;;;8.30;5.75;;;22.20;99.90;;;;;;5032767;28;20047;-78
2023/05/21 09:47:20;;;;;;;7.60;6.63;;;22.30;99.90;;;;;;5032220;28;20029;-77
2023/05/21 09:49:45;;;;;;;8.80;6.80;;;22.40;99.90;;;;;;5033254;28;20033;-77
2023/05/21 09:52:11;;;;;;;8.95;6.22;;;22.60;99.90;;;;;;5033398;28;20694;-77
2023/05/21 09:54:36;;;;;;;10.93;6.07;;;22.80;99.90;;;;;;5042150;28;20425;-81
2023/05/21 09:57:02;;;;;;;8.63;6.55;;;23.10;99.90;;;;;;5045312;28;20022;-81
2023/05/21 09:59:40;;;;;;;7.97;6.00;;;23.40;99.90;;;;;;5049415;28;20036;-81
2023/05/21 10:02:36;;;;;;;7.68;6.32;;;23.60;99.90;;;;;;5049969;28;20049;-81
2023/05/21 10:05:05;;;;;;;8.82;6.40;;;23.90;99.90;;;;;;5025218;28;20044;-79
2023/05/21 10:07:32;;;;;;;8.55;6.38;;;24.00;99.90;;;;;;5045115;28;20041;-80
2023/05/21 10:09:59;;;;;;;7.65;6.32;;;24.20;99.90;;;;;;5049849;28;20029;-80
2023/05/21 10:12:26;;;;;;;9.20;6.28;;;24.50;99.90;;;;;;5044240;28;20112;-80
2023/05/21 10:15:15;;;;;;;6.15;5.50;;;24.80;99.90;;;;;;5028964;28;20505;-84
2023/05/21 10:17:42;;;;;;;9.27;6.35;;;25.20;99.90;;;;;;5027055;28;20695;-84
2023/05/21 10:20:10;;;;;;;7.22;6.47;;;25.30;99.90;;;;;;5030105;28;20501;-85
2023/05/21 10:22:36;;;;;;;8.73;6.20;;;25.40;99.90;;;;;;5032594;28;20029;-85
2023/05/21 10:25:04;;;;;;;11.02;6.03;;;25.80;99.90;;;;;;5036333;28;20025;-85
2023/05/21 10:27:31;;;;;;;8.25;5.85;;;26.00;99.90;;;;;;5037864;28;20040;-85
2023/05/21 10:29:58;;;;;;;8.50;5.88;;;26.20;99.90;;;;;;5042183;28;20021;-85
2023/05/21 10:32:26;;;;;;;6.85;6.00;;;26.10;99.90;;;;;;5050887;28;20048;-85
2023/05/21 10:34:53;;;;;;;7.88;5.80;;;26.00;99.90;;;;;;5035910;28;20545;-84
2023/05/21 10:37:22;;;;;;;8.13;5.75;;;25.90;99.90;;;;;;5030176;28;20031;-84
2023/05/21 10:39:49;;;;;;;6.70;5.65;;;25.90;99.90;;;;;;5030818;28;20037;-84
2023/05/21 10:42:25;;;;;;;7.05;6.22;;;25.80;99.90;;;;;;5031913;28;20033;-84
2023/05/21 10:45:03;;;;;;;8.63;6.28;;;25.70;99.90;;;;;;5039070;28;20029;-84
2023/05/21 10:48:03;;;;;;;6.25;5.65;;;25.60;99.90;;;;;;5043538;28;20037;-84
2023/05/21 10:50:50;;;;;;;8.10;5.50;;;25.60;99.90;;;;;;5030033;28;20040;-84
2023/05/21 10:53:41;;;;;;;8.45;6.03;;;25.50;99.90;;;;;;5022999;28;20025;-84
2023/05/21 10:56:18;;;;;;;7.30;5.60;;;25.60;99.90;;;;;;5013277;28;20152;-84
2023/05/21 10:58:59;;;;;;;7.68;5.40;;;25.70;99.90;;;;;;5018223;28;20398;-84
2023/05/21 11:01:28;;;;;;;10.82;5.82;;;25.70;99.90;;;;;;5026028;28;20041;-85
2023/05/21 11:03:54;;;;;;;9.27;5.53;;;26.00;99.90;;;;;;5029426;28;20025;-84
2023/05/21 11:06:25;;;;;;;9.25;5.78;;;26.20;99.90;;;;;;5034725;28;20025;-84
2023/05/21 11:08:52;;;;;;;7.28;5.60;;;26.50;99.90;;;;;;5033665;28;20037;-84
2023/05/21 11:11:44;;;;;;;7.28;5.60;;;26.60;99.90;;;;;;5034548;28;20547;-83
2023/05/21 11:14:30;;;;;;;7.25;5.88;;;26.70;98.90;;;;;;5031429;28;20501;-84
2023/05/21 11:16:57;;;;;;;9.27;5.50;;;26.80;99.90;;;;;;5032253;28;20021;-85
2023/05/21 11:19:35;;;;;;;9.00;5.72;;;26.70;99.90;;;;;;5033393;28;20108;-84
2023/05/21 11:22:05;;;;;;;7.03;5.03;;;26.90;96.00;;;;;;5033213;28;20045;-85
2023/05/21 11:24:32;;;;;;;7.57;5.90;;;27.00;99.00;;;;;;5032122;28;20017;-85
2023/05/21 11:27:01;;;;;;;7.25;5.13;;;27.10;94.20;;;;;;5033554;28;20033;-85
2023/05/21 11:29:39;;;;;;;8.15;5.32;;;27.40;92.70;;;;;;5032800;28;20048;-85
2023/05/21 11:32:08;;;;;;;9.50;5.13;;;27.40;92.80;;;;;;5032289;28;20039;-84
2023/05/21 11:34:38;;;;;;;7.80;5.30;;;27.30;90.90;;;;;;5029278;28;20529;-85
2023/05/21 11:37:17;;;;;;;7.28;4.75;;;27.10;92.60;;;;;;5030295;28;20026;-85
2023/05/21 11:39:43;;;;;;;7.43;5.03;;;27.00;91.60;;;;;;5036720;28;20108;-85
2023/05/21 11:42:09;;;;;;;7.45;4.85;;;26.80;91.50;;;;;;5034968;28;20045;-85
2023/05/21 11:44:45;;;;;;;7.32;5.40;;;26.70;89.90;;;;;;5026010;28;20477;-84
2023/05/21 11:47:13;;;;;;;13.95;6.07;;;26.70;90.80;;;;;;5035735;28;20026;-84
2023/05/21 11:49:39;;;;;;;8.05;5.05;;;26.70;91.60;;;;;;5024649;28;20041;-84
2023/05/21 11:52:06;;;;;;;8.90;4.93;;;26.60;91.80;;;;;;5019051;28;20634;-83
2023/05/21 11:54:37;;;;;;;7.10;4.70;;;26.50;90.50;;;;;;5029221;28;20375;-84
2023/05/21 11:57:06;;;;;;;7.32;5.10;;;26.40;90.80;;;;;;5022027;28;20031;-84
2023/05/21 11:59:33;;;;;;;10.40;5.47;;;26.40;91.00;;;;;;5030724;28;20021;-84
2023/05/21 12:01:59;;;;;;;8.30;4.88;;;26.30;91.60;;;;;;5023456;28;20045;-84
2023/05/21 12:04:35;;;;;;;7.93;5.38;;;26.40;90.70;;;;;;5018241;28;20776;-88
2023/05/21 12:07:09;;;;;;;7.43;4.85;;;26.50;91.90;;;;;;5024915;28;20042;-79
2023/05/21 12:09:42;;;;;;;5.88;4.60;;;26.60;90.20;;;;;;5040266;28;20033;-78
2023/05/21 12:12:08;;;;;;;6.72;4.65;;;26.60;90.40;;;;;;5031805;28;22100;-77
2023/05/21 12:14:35;;;;;;;6.32;4.50;;;26.70;91.00;;;;;;5030384;28;20436;-77
2023/05/21 12:17:06;;;;;;;6.00;4.60;;;26.70;85.90;;;;;;5030258;28;20030;-77
2023/05/21 12:19:35;;;;;;;6.93;5.03;;;26.80;88.00;;;;;;5031407;28;20053;-78
2023/05/21 12:22:02;;;;;;;5.40;4.32;;;27.00;84.50;;;;;;5030671;28;20033;-78
2023/05/21 12:24:29;;;;;;;5.85;4.60;;;27.10;86.00;;;;;;5025404;28;20029;-78
2023/05/21 12:26:58;;;;;;;5.72;4.50;;;27.20;86.50;;;;;;5026048;28;20375;-78
2023/05/21 12:29:30;;;;;;;7.25;5.13;;;27.30;83.90;;;;;;5024943;28;20026;-77
2023/05/21 12:32:00;;;;;;;7.80;4.20;;;27.30;83.20;;;;;;5026908;28;20036;-76
2023/05/21 12:34:45;;;;;;;6.13;5.07;;;27.40;81.90;;;;;;5027418;28;20374;-76
2023/05/21 12:37:22;;;;;;;8.80;5.00;;;27.30;84.00;;;;;;5030437;28;20033;-78
2023/05/21 12:39:52;;;;;;;7.85;5.30;;;27.30;86.70;;;;;;5028583;28;20434;-77
2023/05/21 12:42:25;;;;;;;7.47;5.00;;;27.40;89.90;;;;;;5022940;28;20041;-78
2023/05/21 12:44:52;;;;;;;6.18;5.45;;;27.50;85.50;;;;;;5029306;28;20037;-77
2023/05/21 12:47:17;;;;;;;9.13;5.95;;;27.50;87.10;;;;;;5027234;28;20034;-77